Time;durP1;ratioP1;P1;durP2;ratioP2;P2;SDS_P1;SDS_P2;PMS_P1;PMS_P2;Temp;Humidity;BMP_temperature;BMP_pressure;BME280_temperature;BME280_humidity;BME280_pressure;Samples;Min_cycle;Max_cycle;Signal;HPM_P1;HPM_P2
2023/12/10 00:01:09;;;;;;;0.30;0.30;;;9.50;87.00;8.30;95058.00;;;;5051132;28;20667;-81
2023/12/10 00:03:36;;;;;;;0.40;0.40;;;9.60;87.00;8.40;95078.00;;;;5057367;28;20200;-81
2023/12/10 00:06:04;;;;;;;0.30;0.30;;;9.70;86.90;8.40;95071.00;;;;5057224;28;20217;-81
2023/12/10 00:08:33;;;;;;;0.40;0.40;;;9.70;86.80;8.50;95078.00;;;;5049174;28;20207;-81
2023/12/10 00:11:02;;;;;;;0.50;0.50;;;9.70;86.70;8.50;95087.00;;;;5049881;28;20210;-81
2023/12/10 00:13:30;;;;;;;0.60;0.57;;;9.80;86.70;8.60;95096.00;;;;5047743;28;20640;-81
2023/12/10 00:15:57;;;;;;;0.40;0.40;;;9.80;86.60;8.60;95094.00;;;;5052375;28;20672;-81
2023/12/10 00:18:24;;;;;;;0.67;0.40;;;9.90;86.50;8.60;95087.00;;;;5051676;28;20204;-81
2023/12/10 00:20:52;;;;;;;0.53;0.40;;;9.90;86.40;8.70;95077.00;;;;5042772;28;20581;-82
2023/12/10 00:23:20;;;;;;;0.33;0.33;;;9.90;86.20;8.70;95092.00;;;;5041094;28;20264;-81
2023/12/10 00:25:49;;;;;;;0.40;0.40;;;10.00;86.20;8.70;95106.00;;;;5047056;28;20212;-81
2023/12/10 00:28:16;;;;;;;0.40;0.40;;;10.00;86.10;8.70;95111.00;;;;5044005;28;20599;-82
2023/12/10 00:30:45;;;;;;;0.30;0.30;;;10.00;86.00;8.80;95118.00;;;;5052009;28;20196;-82
2023/12/10 00:33:15;;;;;;;0.40;0.40;;;10.00;85.90;8.80;95116.00;;;;5049391;28;20657;-81
2023/12/10 00:35:44;;;;;;;0.30;0.30;;;10.10;85.90;8.80;95125.00;;;;5049856;28;20251;-82
2023/12/10 00:38:12;;;;;;;0.27;0.27;;;10.10;85.80;8.80;95125.00;;;;5053451;28;20204;-82
2023/12/10 00:40:39;;;;;;;0.30;0.30;;;10.10;85.60;8.80;95148.00;;;;5048993;28;20264;-82
2023/12/10 00:43:08;;;;;;;0.40;0.40;;;10.10;85.50;8.80;95156.00;;;;5054789;28;20216;-82
2023/12/10 00:45:36;;;;;;;0.30;0.30;;;10.10;85.40;8.80;95150.00;;;;5042563;28;20213;-82
2023/12/10 00:48:04;;;;;;;0.30;0.30;;;10.10;85.40;8.80;95167.00;;;;5054515;28;20232;-81
2023/12/10 00:50:32;;;;;;;0.40;0.40;;;10.10;85.50;8.80;95170.00;;;;5045407;28;20207;-82
2023/12/10 00:52:59;;;;;;;0.30;0.30;;;10.10;86.20;8.90;95177.00;;;;5048517;28;20564;-82
2023/12/10 00:55:26;;;;;;;0.30;0.30;;;10.10;85.60;8.90;95189.00;;;;5045673;28;20233;-82
2023/12/10 00:57:54;;;;;;;0.27;0.27;;;10.10;85.70;8.90;95209.00;;;;5052174;28;20475;-82
2023/12/10 01:00:24;;;;;;;0.60;0.30;;;10.20;85.80;8.90;95206.00;;;;5045137;28;20210;-83
2023/12/10 01:02:51;;;;;;;0.83;0.40;;;10.20;85.90;9.00;95208.00;;;;5050613;28;20200;-82
2023/12/10 01:05:19;;;;;;;0.20;0.20;;;10.20;86.00;9.00;95222.00;;;;5037802;28;20232;-82
2023/12/10 01:07:46;;;;;;;0.30;0.30;;;10.30;86.00;9.00;95243.00;;;;5034862;28;20205;-82
2023/12/10 01:10:15;;;;;;;0.40;0.40;;;10.30;86.00;9.00;95245.00;;;;5036345;28;20293;-82
2023/12/10 01:12:42;;;;;;;0.50;0.50;;;10.30;85.90;9.10;95254.00;;;;5041262;28;21829;-82
2023/12/10 01:15:11;;;;;;;0.40;0.40;;;10.30;85.80;9.10;95263.00;;;;5035662;28;20598;-82
2023/12/10 01:17:40;;;;;;;0.40;0.40;;;10.40;85.70;9.10;95267.00;;;;5044807;28;20245;-82
2023/12/10 01:20:09;;;;;;;0.90;0.50;;;10.40;85.70;9.10;95285.00;;;;5050862;28;20225;-82
2023/12/10 01:22:40;;;;;;;0.43;0.43;;;10.40;85.70;9.10;95281.00;;;;5040255;28;20192;-82
2023/12/10 01:25:09;;;;;;;1.47;0.70;;;10.40;85.80;9.10;95279.00;;;;5046197;28;20301;-82
2023/12/10 01:27:36;;;;;;;1.43;0.57;;;10.40;85.70;9.10;95277.00;;;;5048100;28;20202;-82
2023/12/10 01:30:05;;;;;;;0.43;0.40;;;10.40;85.70;9.10;95285.00;;;;5043069;28;20201;-82
2023/12/10 01:32:32;;;;;;;1.37;0.50;;;10.40;85.80;9.10;95292.00;;;;5053402;28;20239;-82
2023/12/10 01:35:01;;;;;;;0.63;0.40;;;10.40;85.70;9.20;95313.00;;;;5053444;28;20231;-82
2023/12/10 01:37:30;;;;;;;0.67;0.47;;;10.50;85.70;9.20;95309.00;;;;5054979;28;20231;-82
2023/12/10 01:39:57;;;;;;;0.67;0.50;;;10.50;85.80;9.20;95327.00;;;;5024954;28;20195;-82
2023/12/10 01:42:25;;;;;;;0.60;0.37;;;10.50;85.80;9.20;95337.00;;;;5039400;28;20278;-82
2023/12/10 01:44:52;;;;;;;0.60;0.40;;;10.50;85.80;9.20;95342.00;;;;5051922;28;20223;-82
2023/12/10 01:47:20;;;;;;;0.40;0.40;;;10.50;85.80;9.20;95351.00;;;;5044280;28;20713;-82
2023/12/10 01:49:48;;;;;;;0.60;0.57;;;10.50;85.80;9.30;95360.00;;;;5041385;28;20197;-82
2023/12/10 01:52:17;;;;;;;1.10;0.43;;;10.50;85.80;9.30;95360.00;;;;5044961;28;20207;-82
2023/12/10 01:54:45;;;;;;;0.30;0.30;;;10.50;85.70;9.30;95368.00;;;;5041541;28;20216;-82
2023/12/10 01:57:13;;;;;;;0.40;0.33;;;10.60;85.70;9.30;95367.00;;;;5048062;28;20235;-82
2023/12/10 01:59:41;;;;;;;0.50;0.50;;;10.60;85.50;9.20;95379.00;;;;5048050;28;20205;-82
2023/12/10 02:02:09;;;;;;;0.50;0.50;;;10.60;85.30;9.20;95377.00;;;;5048722;28;20571;-82
2023/12/10 02:04:36;;;;;;;0.50;0.40;;;10.50;85.20;9.20;95388.00;;;;5040631;28;20228;-82
2023/12/10 02:07:04;;;;;;;0.63;0.50;;;10.50;85.10;9.20;95404.00;;;;5039161;28;20199;-82
2023/12/10 02:09:33;;;;;;;0.40;0.30;;;10.50;85.10;9.20;95406.00;;;;5051089;28;20211;-82
2023/12/10 02:12:04;;;;;;;2.40;0.50;;;10.50;85.00;9.20;95410.00;;;;5049801;28;20200;-82
2023/12/10 02:14:31;;;;;;;1.27;0.60;;;10.50;85.10;9.20;95420.00;;;;5038507;28;20634;-82
2023/12/10 02:16:59;;;;;;;0.47;0.40;;;10.50;85.20;9.20;95432.00;;;;5041501;28;20262;-82
2023/12/10 02:19:28;;;;;;;1.43;0.50;;;10.50;85.20;9.20;95436.00;;;;5046214;28;20292;-82
2023/12/10 02:21:59;;;;;;;0.60;0.50;;;10.50;85.20;9.10;95442.00;;;;5052119;28;20204;-82
2023/12/10 02:24:43;;;;;;;0.47;0.40;;;10.50;85.10;9.10;95444.00;;;;5053501;28;20236;-82
2023/12/10 02:27:13;;;;;;;0.40;0.30;;;10.50;85.00;9.10;95449.00;;;;5054359;28;20199;-82
2023/12/10 02:29:40;;;;;;;0.30;0.30;;;10.50;84.80;9.10;95452.00;;;;5050500;28;20211;-82
2023/12/10 02:32:08;;;;;;;0.50;0.50;;;10.50;84.80;9.10;95462.00;;;;5042132;28;20197;-82
2023/12/10 02:34:37;;;;;;;0.40;0.40;;;10.40;84.70;9.00;95461.00;;;;5042878;28;20220;-82
2023/12/10 02:37:04;;;;;;;0.40;0.40;;;10.40;84.60;9.00;95463.00;;;;5046306;28;20220;-82
2023/12/10 02:39:32;;;;;;;0.53;0.53;;;10.40;84.60;9.00;95463.00;;;;5046474;28;20825;-82
2023/12/10 02:41:59;;;;;;;0.47;0.30;;;10.40;85.20;9.00;95473.00;;;;5045197;28;20656;-82
2023/12/10 02:44:28;;;;;;;0.20;0.20;;;10.30;84.50;9.00;95468.00;;;;5048433;28;20232;-82
2023/12/10 02:46:56;;;;;;;0.50;0.23;;;10.30;84.50;9.00;95479.00;;;;5051666;28;20661;-82
2023/12/10 02:49:24;;;;;;;1.00;0.30;;;10.30;84.60;8.90;95482.00;;;;5039743;28;20201;-82
2023/12/10 02:51:52;;;;;;;0.53;0.50;;;10.30;84.70;8.90;95501.00;;;;5042702;28;20201;-82
2023/12/10 02:54:19;;;;;;;0.40;0.20;;;10.30;84.80;8.90;95498.00;;;;5049565;28;20224;-82
2023/12/10 02:56:47;;;;;;;0.93;0.30;;;10.30;84.90;8.90;95491.00;;;;5047799;28;20225;-82
2023/12/10 02:59:15;;;;;;;0.47;0.27;;;10.30;85.00;8.90;95501.00;;;;5047137;28;20203;-83
2023/12/10 03:01:44;;;;;;;2.63;0.37;;;10.30;84.90;8.90;95509.00;;;;5044057;28;20204;-82
2023/12/10 03:04:11;;;;;;;0.70;0.20;;;10.30;84.90;8.90;95515.00;;;;5048515;28;20591;-82
2023/12/10 03:06:39;;;;;;;0.90;0.37;;;10.30;84.90;8.90;95513.00;;;;5039169;28;20207;-82
2023/12/10 03:09:06;;;;;;;3.60;0.50;;;10.30;84.80;8.90;95524.00;;;;5048751;28;20207;-82
2023/12/10 03:11:33;;;;;;;0.57;0.37;;;10.20;84.70;8.90;95522.00;;;;5042129;28;20201;-82
2023/12/10 03:14:04;;;;;;;0.33;0.30;;;10.20;84.70;8.90;95529.00;;;;5038424;28;20204;-82
2023/12/10 03:16:34;;;;;;;1.93;0.30;;;10.20;84.60;8.80;95528.00;;;;5049392;28;20217;-82
2023/12/10 03:19:03;;;;;;;1.77;0.60;;;10.20;84.60;8.80;95534.00;;;;5047224;28;20201;-83
2023/12/10 03:21:30;;;;;;;1.60;0.30;;;10.20;84.70;8.90;95540.00;;;;5044287;28;20200;-83
2023/12/10 03:23:59;;;;;;;0.53;0.30;;;10.20;84.80;8.80;95546.00;;;;5051518;28;20568;-82
2023/12/10 03:26:26;;;;;;;1.07;0.40;;;10.20;84.90;8.90;95548.00;;;;5039921;28;20208;-83
2023/12/10 03:28:53;;;;;;;1.93;0.80;;;10.20;84.90;8.90;95547.00;;;;5045778;28;20200;-82
2023/12/10 03:31:21;;;;;;;1.67;0.57;;;10.20;85.00;8.90;95550.00;;;;5044675;28;20196;-83
2023/12/10 03:33:50;;;;;;;0.90;0.50;;;10.20;85.00;8.90;95555.00;;;;5036638;28;20664;-82
2023/12/10 03:36:19;;;;;;;1.10;0.40;;;10.20;85.00;8.90;95562.00;;;;5046790;28;20224;-82
2023/12/10 03:38:47;;;;;;;0.73;0.30;;;10.20;84.90;8.90;95569.00;;;;5041304;28;20196;-82
2023/12/10 03:41:15;;;;;;;1.07;0.40;;;10.20;85.00;8.90;95574.00;;;;5048069;28;20483;-82
2023/12/10 03:43:42;;;;;;;1.30;0.27;;;10.20;84.90;8.90;95585.00;;;;5041116;28;20211;-82
2023/12/10 03:46:11;;;;;;;0.63;0.33;;;10.20;84.90;8.90;95594.00;;;;5048197;28;20208;-82
2023/12/10 03:48:41;;;;;;;0.83;0.23;;;10.20;85.00;8.90;95593.00;;;;5046374;28;20280;-82
2023/12/10 03:51:11;;;;;;;1.47;0.40;;;10.20;85.00;8.90;95590.00;;;;5040124;28;20206;-83
2023/12/10 03:53:43;;;;;;;0.63;0.30;;;10.20;85.00;8.90;95598.00;;;;5044708;28;20659;-82
2023/12/10 03:56:11;;;;;;;0.67;0.40;;;10.20;85.00;8.90;95602.00;;;;5053256;28;20196;-82
2023/12/10 03:58:39;;;;;;;0.50;0.40;;;10.20;84.90;8.90;95611.00;;;;5042905;28;20579;-82
2023/12/10 04:01:07;;;;;;;2.07;0.50;;;10.20;84.70;8.90;95616.00;;;;5037159;28;20197;-82
2023/12/10 04:03:34;;;;;;;2.60;0.40;;;10.20;84.60;8.80;95622.00;;;;5042204;28;20201;-83
2023/12/10 04:06:04;;;;;;;1.90;0.20;;;10.20;84.70;8.80;95630.00;;;;5041649;28;20217;-82
2023/12/10 04:08:33;;;;;;;1.63;0.30;;;10.20;84.60;8.80;95639.00;;;;5042759;28;20239;-82
2023/12/10 04:11:03;;;;;;;2.10;0.73;;;10.20;84.70;8.80;95633.00;;;;5042151;28;20737;-83
2023/12/10 04:13:31;;;;;;;1.13;0.60;;;10.20;84.70;8.80;95627.00;;;;5039694;28;20205;-83
2023/12/10 04:16:01;;;;;;;1.10;0.47;;;10.20;84.80;8.80;95624.00;;;;5046736;28;20217;-82
2023/12/10 04:18:28;;;;;;;2.17;0.50;;;10.20;84.90;8.80;95638.00;;;;5044996;28;20209;-82
2023/12/10 04:20:56;;;;;;;1.43;0.73;;;10.20;84.90;8.80;95638.00;;;;5045081;28;20205;-83
2023/12/10 04:23:23;;;;;;;2.27;0.40;;;10.20;85.00;8.80;95639.00;;;;5045376;28;20593;-82
2023/12/10 04:25:51;;;;;;;1.20;0.80;;;10.20;85.00;8.80;95639.00;;;;5047744;28;20220;-82
2023/12/10 04:28:20;;;;;;;7.47;4.10;;;10.20;84.90;8.80;95647.00;;;;5043169;28;20206;-82
2023/12/10 04:30:48;;;;;;;2.97;1.67;;;10.20;85.00;8.80;95643.00;;;;5034265;28;20289;-81
2023/12/10 04:33:16;;;;;;;2.80;1.80;;;10.10;84.90;8.80;95648.00;;;;5031938;28;20613;-82
2023/12/10 04:35:44;;;;;;;3.23;1.03;;;10.10;84.70;8.80;95642.00;;;;5048737;28;20664;-83
2023/12/10 04:38:12;;;;;;;1.03;0.60;;;10.10;84.50;8.80;95647.00;;;;5046784;28;20599;-82
2023/12/10 04:40:42;;;;;;;1.37;0.60;;;10.10;84.30;8.70;95652.00;;;;5045842;28;20201;-82
2023/12/10 04:43:10;;;;;;;1.80;0.50;;;10.10;84.20;8.70;95647.00;;;;5039386;28;20207;-83
2023/12/10 04:45:39;;;;;;;0.93;0.40;;;10.10;84.10;8.70;95649.00;;;;5041725;28;20248;-82
2023/12/10 04:48:07;;;;;;;2.40;0.47;;;10.10;83.90;8.70;95655.00;;;;5043974;28;20200;-83
2023/12/10 04:50:36;;;;;;;3.23;0.63;;;10.10;83.90;8.60;95656.00;;;;5038640;28;20197;-83
2023/12/10 04:53:04;;;;;;;3.03;1.03;;;10.00;84.00;8.60;95653.00;;;;5036917;28;20251;-83
2023/12/10 04:55:32;;;;;;;3.63;0.80;;;10.00;84.10;8.60;95667.00;;;;5053884;28;20572;-82
2023/12/10 04:58:00;;;;;;;2.83;0.50;;;10.00;84.20;8.60;95668.00;;;;5046585;28;20283;-82
2023/12/10 05:00:28;;;;;;;2.70;0.80;;;10.00;84.20;8.60;95679.00;;;;5044050;28;20580;-83
2023/12/10 05:02:58;;;;;;;2.60;0.70;;;9.90;84.40;8.60;95679.00;;;;5042792;28;20212;-82
2023/12/10 05:05:27;;;;;;;3.33;0.67;;;10.00;84.50;8.60;95683.00;;;;5047430;28;20217;-82
2023/12/10 05:07:55;;;;;;;2.23;0.60;;;10.00;84.60;8.60;95672.00;;;;5050010;28;20197;-83
2023/12/10 05:10:23;;;;;;;4.07;0.60;;;9.90;84.60;8.60;95679.00;;;;5045647;28;20212;-83
2023/12/10 05:12:50;;;;;;;2.53;0.40;;;10.00;84.70;8.60;95685.00;;;;5041981;28;20201;-83
2023/12/10 05:15:18;;;;;;;2.07;0.77;;;10.00;84.70;8.60;95697.00;;;;5054825;28;20225;-83
2023/12/10 05:17:45;;;;;;;1.67;0.77;;;10.00;84.80;8.60;95720.00;;;;5047530;28;20224;-83
2023/12/10 05:20:16;;;;;;;1.97;0.70;;;10.00;84.80;8.60;95743.00;;;;5043765;28;20213;-83
2023/12/10 05:22:43;;;;;;;1.43;0.50;;;10.00;84.80;8.60;95754.00;;;;5053929;28;20205;-82
2023/12/10 05:25:12;;;;;;;2.03;0.93;;;10.00;84.90;8.60;95759.00;;;;5048277;28;20444;-82
2023/12/10 05:27:40;;;;;;;1.40;0.70;;;10.00;84.80;8.60;95775.00;;;;5042282;28;20626;-82
2023/12/10 05:30:09;;;;;;;2.77;0.83;;;10.00;84.80;8.70;95796.00;;;;5051284;28;20236;-82
2023/12/10 05:32:37;;;;;;;3.80;0.60;;;10.00;84.90;8.60;95791.00;;;;5049822;28;20209;-82
2023/12/10 05:35:05;;;;;;;2.03;0.77;;;10.00;84.80;8.60;95752.00;;;;5052972;28;20231;-83
2023/12/10 05:37:35;;;;;;;1.80;0.60;;;10.00;84.70;8.60;95752.00;;;;5052592;28;20216;-83
2023/12/10 05:40:02;;;;;;;1.60;0.50;;;10.00;84.50;8.50;95767.00;;;;5043352;28;20659;-83
2023/12/10 05:42:30;;;;;;;1.83;0.30;;;9.90;84.30;8.50;95778.00;;;;5052220;28;20506;-83
2023/12/10 05:44:58;;;;;;;2.50;0.50;;;9.90;84.20;8.40;95775.00;;;;5054620;28;20248;-83
2023/12/10 05:47:26;;;;;;;1.27;0.40;;;9.90;84.00;8.40;95776.00;;;;5048508;28;20679;-82
2023/12/10 05:49:55;;;;;;;2.03;0.40;;;9.80;83.70;8.30;95782.00;;;;5045810;28;20670;-83
2023/12/10 05:52:22;;;;;;;1.83;0.53;;;9.80;83.50;8.30;95784.00;;;;5048881;28;20201;-83
2023/12/10 05:54:51;;;;;;;0.90;0.70;;;9.80;83.40;8.20;95782.00;;;;5049937;28;20213;-83
2023/12/10 05:57:20;;;;;;;1.33;0.57;;;9.70;83.20;8.20;95780.00;;;;5050016;28;20324;-83
2023/12/10 05:59:48;;;;;;;4.20;0.97;;;9.70;83.20;8.20;95784.00;;;;5053689;28;20654;-83
2023/12/10 06:02:20;;;;;;;1.93;0.87;;;9.70;83.30;8.20;95791.00;;;;5023508;28;20189;-83
2023/12/10 06:04:47;;;;;;;1.00;0.67;;;9.60;83.40;8.20;95803.00;;;;5040273;28;20220;-83
2023/12/10 06:07:15;;;;;;;2.30;0.67;;;9.60;83.50;8.10;95794.00;;;;5047464;28;20204;-83
2023/12/10 06:09:43;;;;;;;2.13;0.77;;;9.60;83.60;8.10;95802.00;;;;5048213;28;20204;-83
2023/12/10 06:12:12;;;;;;;1.90;0.77;;;9.60;83.70;8.10;95798.00;;;;5051296;28;20208;-83
2023/12/10 06:14:39;;;;;;;3.63;0.90;;;9.60;83.90;8.10;95797.00;;;;5047995;28;20232;-83
2023/12/10 06:17:06;;;;;;;2.77;1.00;;;9.60;84.70;8.20;95807.00;;;;5048918;28;20220;-83
2023/12/10 06:19:36;;;;;;;4.77;1.03;;;9.50;84.10;8.10;95798.00;;;;5042962;28;20193;-83
2023/12/10 06:22:04;;;;;;;2.30;1.10;;;9.50;84.20;8.10;95810.00;;;;5048875;28;20207;-83
2023/12/10 06:24:32;;;;;;;4.30;1.10;;;9.50;84.20;8.20;95825.00;;;;5044326;28;20602;-83
2023/12/10 06:27:00;;;;;;;4.30;1.20;;;9.60;84.40;8.20;95819.00;;;;5039750;28;20225;-83
2023/12/10 06:29:28;;;;;;;5.00;1.87;;;9.60;84.40;8.20;95826.00;;;;5043939;28;20197;-83
2023/12/10 06:31:56;;;;;;;5.17;2.30;;;9.60;84.40;8.20;95821.00;;;;5047985;28;20207;-83
2023/12/10 06:34:23;;;;;;;5.53;1.67;;;9.50;84.10;8.10;95826.00;;;;5050967;28;20311;-83
2023/12/10 06:36:51;;;;;;;5.20;1.40;;;9.60;84.20;8.10;95828.00;;;;5047400;28;20196;-83
2023/12/10 06:39:18;;;;;;;6.83;2.17;;;9.60;84.10;8.10;95833.00;;;;5046402;28;20298;-83
2023/12/10 06:41:46;;;;;;;5.13;1.50;;;9.50;84.10;8.10;95837.00;;;;5040664;28;20204;-83
2023/12/10 06:44:21;;;;;;;4.33;1.30;;;9.50;84.00;8.10;95857.00;;;;5043695;28;20588;-83
2023/12/10 06:46:50;;;;;;;4.53;1.53;;;9.50;83.90;8.10;95868.00;;;;5037026;28;20292;-83
2023/12/10 06:49:18;;;;;;;7.37;2.13;;;9.50;83.80;8.10;95857.00;;;;5046961;28;20196;-83
2023/12/10 06:51:46;;;;;;;3.17;1.17;;;9.50;83.90;8.10;95858.00;;;;5042822;28;20204;-83
2023/12/10 06:54:13;;;;;;;5.63;1.80;;;9.50;84.00;8.10;95861.00;;;;5050503;28;20594;-84
2023/12/10 06:56:41;;;;;;;5.20;1.80;;;9.50;84.00;8.10;95869.00;;;;5041802;28;20676;-83
2023/12/10 06:59:08;;;;;;;4.43;1.60;;;9.50;84.00;8.10;95882.00;;;;5043620;28;20216;-83
2023/12/10 07:01:38;;;;;;;6.33;1.70;;;9.50;84.10;8.10;95891.00;;;;5040710;28;20207;-83
2023/12/10 07:04:09;;;;;;;6.20;1.83;;;9.50;84.10;8.10;95896.00;;;;5038179;28;20223;-84
2023/12/10 07:06:37;;;;;;;7.57;1.70;;;9.50;84.00;8.10;95890.00;;;;5047528;28;20570;-83
2023/12/10 07:09:06;;;;;;;4.87;1.30;;;9.50;84.00;8.20;95893.00;;;;5046075;28;20204;-83
2023/12/10 07:11:34;;;;;;;5.53;1.73;;;9.50;83.80;8.20;95898.00;;;;5037139;28;20621;-83
2023/12/10 07:14:03;;;;;;;8.30;1.70;;;9.50;83.70;8.10;95903.00;;;;5043268;28;20717;-83
2023/12/10 07:16:31;;;;;;;5.33;1.40;;;9.50;83.90;8.20;95897.00;;;;5042775;28;20201;-83
2023/12/10 07:18:58;;;;;;;5.83;1.57;;;9.50;83.60;8.10;95900.00;;;;5036434;28;20610;-83
2023/12/10 07:21:28;;;;;;;6.60;1.60;;;9.50;83.60;8.20;95913.00;;;;5047536;28;20291;-83
2023/12/10 07:23:56;;;;;;;5.83;1.93;;;9.60;83.50;8.20;95911.00;;;;5045818;28;20197;-83
2023/12/10 07:26:23;;;;;;;7.50;2.17;;;9.50;83.50;8.20;95926.00;;;;5040779;28;20209;-83
2023/12/10 07:28:51;;;;;;;5.30;1.30;;;9.60;83.60;8.20;95918.00;;;;5045499;28;20197;-83
2023/12/10 07:31:20;;;;;;;3.83;1.50;;;9.50;83.50;8.20;95921.00;;;;5041448;28;20293;-83
2023/12/10 07:33:47;;;;;;;6.80;1.40;;;9.60;83.50;8.20;95922.00;;;;5038912;28;20204;-83
2023/12/10 07:36:15;;;;;;;7.23;1.70;;;9.60;83.50;8.20;95939.00;;;;5046886;28;20288;-84
2023/12/10 07:38:44;;;;;;;4.33;1.50;;;9.60;83.50;8.20;95940.00;;;;5048548;28;20213;-83
2023/12/10 07:41:13;;;;;;;7.97;1.80;;;9.60;83.60;8.30;95951.00;;;;5045119;28;20212;-83
2023/12/10 07:43:40;;;;;;;5.07;1.17;;;9.60;83.80;8.30;95961.00;;;;5043709;28;20200;-83
2023/12/10 07:46:09;;;;;;;6.57;1.57;;;9.60;83.90;8.40;95970.00;;;;5050671;28;20295;-82
2023/12/10 07:48:36;;;;;;;7.80;2.43;;;9.70;84.00;8.40;95967.00;;;;5039905;28;20199;-82
2023/12/10 07:53:46;;;;;;;4.77;1.43;;;9.70;83.80;8.50;95981.00;;;;5039755;28;20204;-82
2023/12/10 07:56:14;;;;;;;7.33;2.20;;;9.80;84.70;8.50;95974.00;;;;5042226;28;20548;-82
2023/12/10 07:58:42;;;;;;;4.90;1.37;;;9.90;84.20;8.60;95984.00;;;;5043900;28;20278;-82
2023/12/10 08:01:10;;;;;;;4.73;1.60;;;9.90;84.00;8.60;95984.00;;;;5037538;28;20202;-82
2023/12/10 08:03:38;;;;;;;6.97;2.03;;;9.90;83.80;8.70;95989.00;;;;5047884;28;20296;-83
2023/12/10 08:06:06;;;;;;;5.90;1.70;;;10.00;83.70;8.70;95999.00;;;;5046340;28;20235;-82
2023/12/10 08:08:33;;;;;;;3.83;1.57;;;10.00;83.50;8.80;96016.00;;;;5036819;28;20228;-82
2023/12/10 08:11:03;;;;;;;6.47;1.60;;;10.10;83.70;8.80;96022.00;;;;5052570;28;20208;-82
2023/12/10 08:13:31;;;;;;;8.03;1.90;;;10.10;83.60;8.80;96028.00;;;;5045252;28;20252;-83
2023/12/10 08:15:59;;;;;;;4.43;1.70;;;10.20;83.60;8.90;96023.00;;;;5051021;28;20224;-82
2023/12/10 08:18:26;;;;;;;6.60;1.53;;;10.20;83.40;8.90;96045.00;;;;5041021;28;20252;-82
2023/12/10 08:20:54;;;;;;;4.83;1.30;;;10.20;83.40;8.90;96045.00;;;;5048279;28;20193;-82
2023/12/10 08:23:23;;;;;;;7.07;2.10;;;10.20;83.30;8.90;96052.00;;;;5045876;28;20608;-82
2023/12/10 08:25:51;;;;;;;3.87;1.90;;;10.30;83.30;9.00;96050.00;;;;5052792;28;20213;-82
2023/12/10 08:28:20;;;;;;;4.57;1.57;;;10.30;83.20;9.00;96061.00;;;;5045573;28;20211;-82
2023/12/10 08:30:48;;;;;;;7.27;1.93;;;10.30;82.90;9.00;96060.00;;;;5036585;28;20202;-82
2023/12/10 08:33:16;;;;;;;5.33;1.53;;;10.40;82.80;9.10;96062.00;;;;5048487;28;20597;-82
2023/12/10 08:35:44;;;;;;;7.53;2.20;;;10.40;82.90;9.10;96072.00;;;;5045107;28;20340;-82
2023/12/10 08:38:11;;;;;;;8.80;2.10;;;10.40;82.80;9.10;96074.00;;;;5047056;28;20251;-83
2023/12/10 08:40:38;;;;;;;6.23;1.80;;;10.50;83.00;9.20;96072.00;;;;5050118;28;20205;-82
2023/12/10 08:43:06;;;;;;;14.47;2.00;;;10.50;83.00;9.30;96078.00;;;;5046924;28;20202;-82
2023/12/10 08:45:35;;;;;;;8.30;2.20;;;10.50;83.20;9.30;96080.00;;;;5045787;28;20223;-82
2023/12/10 08:48:03;;;;;;;4.17;1.50;;;10.60;83.30;9.40;96079.00;;;;5038055;28;20284;-82
2023/12/10 08:50:32;;;;;;;5.60;2.20;;;10.70;83.60;9.50;96097.00;;;;5042468;28;20197;-83
2023/12/10 08:53:00;;;;;;;4.73;1.97;;;10.70;83.80;9.60;96102.00;;;;5045923;28;20193;-83
2023/12/10 08:55:28;;;;;;;6.73;2.00;;;10.80;84.00;9.70;96098.00;;;;5045913;28;20311;-82
2023/12/10 08:57:56;;;;;;;6.07;1.60;;;10.90;83.80;9.80;96096.00;;;;5050945;28;20216;-82
2023/12/10 09:00:23;;;;;;;9.17;1.67;;;11.00;83.60;9.90;96092.00;;;;5047693;28;20283;-82
2023/12/10 09:02:53;;;;;;;6.60;2.10;;;11.10;83.00;9.90;96096.00;;;;5043619;28;20193;-82
2023/12/10 09:05:20;;;;;;;5.83;2.27;;;11.10;82.30;9.90;96100.00;;;;5045040;28;20307;-82
2023/12/10 09:07:48;;;;;;;7.07;2.00;;;11.20;82.20;9.90;96092.00;;;;5037011;28;20201;-82
2023/12/10 09:10:16;;;;;;;7.83;1.80;;;11.20;81.80;9.90;96092.00;;;;5050905;28;20204;-82
2023/12/10 09:12:43;;;;;;;4.20;1.70;;;11.20;81.70;10.00;96098.00;;;;5047397;28;20400;-82
2023/12/10 09:15:13;;;;;;;6.67;1.73;;;11.20;81.60;10.00;96111.00;;;;5050481;28;20386;-82
2023/12/10 09:17:40;;;;;;;3.93;1.83;;;11.30;81.70;10.00;96111.00;;;;5048097;28;20192;-82
2023/12/10 09:20:11;;;;;;;5.90;2.07;;;11.30;81.60;10.00;96111.00;;;;5045318;28;20205;-82
2023/12/10 09:22:39;;;;;;;4.53;2.00;;;11.30;81.40;10.00;96115.00;;;;5046854;28;20204;-82
2023/12/10 09:25:07;;;;;;;4.93;1.70;;;11.30;81.60;10.10;96117.00;;;;5048201;28;20217;-82
2023/12/10 09:27:35;;;;;;;5.87;1.70;;;11.40;81.40;10.10;96107.00;;;;5042263;28;20197;-82
2023/12/10 09:30:02;;;;;;;4.90;1.80;;;11.40;81.40;10.10;96115.00;;;;5055125;28;20193;-82
2023/12/10 09:32:30;;;;;;;6.40;1.57;;;11.40;81.20;10.10;96119.00;;;;5042171;28;20221;-82
2023/12/10 09:34:57;;;;;;;5.57;2.23;;;11.40;81.00;10.10;96114.00;;;;5047736;28;20220;-82
2023/12/10 09:37:27;;;;;;;7.27;1.87;;;11.40;80.70;10.10;96115.00;;;;5045389;28;20284;-82
2023/12/10 09:39:54;;;;;;;4.57;1.57;;;11.40;80.50;10.20;96110.00;;;;5043259;28;20220;-82
2023/12/10 09:42:22;;;;;;;6.03;1.87;;;11.50;80.70;10.20;96127.00;;;;5050617;28;20216;-82
2023/12/10 09:44:49;;;;;;;6.30;1.90;;;11.50;80.60;10.20;96122.00;;;;5049101;28;20217;-82
2023/12/10 09:47:19;;;;;;;6.27;1.77;;;11.50;80.80;10.20;96124.00;;;;5053296;28;20209;-82
2023/12/10 09:49:47;;;;;;;5.97;2.10;;;11.50;80.30;10.20;96135.00;;;;5046274;28;20195;-82
2023/12/10 09:52:15;;;;;;;5.87;2.00;;;11.50;80.30;10.20;96123.00;;;;5049947;28;20649;-82
2023/12/10 09:54:46;;;;;;;5.07;2.03;;;11.50;80.30;10.30;96126.00;;;;5052550;28;20213;-82
2023/12/10 09:57:13;;;;;;;6.13;2.00;;;11.50;80.20;10.30;96126.00;;;;5048102;28;20575;-82
2023/12/10 09:59:41;;;;;;;4.00;1.60;;;11.60;80.50;10.30;96128.00;;;;5045588;28;20222;-82
2023/12/10 10:02:10;;;;;;;6.07;1.87;;;11.60;80.10;10.30;96119.00;;;;5053686;28;20564;-82
2023/12/10 10:04:41;;;;;;;9.40;2.43;;;11.60;80.00;10.40;96120.00;;;;5042295;28;20691;-82
2023/12/10 10:07:09;;;;;;;5.73;2.20;;;11.60;80.20;10.50;96119.00;;;;5053353;28;20200;-82
2023/12/10 10:09:38;;;;;;;4.43;1.63;;;11.70;81.10;10.60;96134.00;;;;5041426;28;20200;-82
2023/12/10 10:12:12;;;;;;;4.70;1.30;;;11.80;81.70;10.70;96126.00;;;;5046794;28;20251;-82
2023/12/10 10:14:40;;;;;;;3.50;1.17;;;11.80;82.40;10.80;96127.00;;;;5044889;28;20596;-82
2023/12/10 10:17:07;;;;;;;4.73;1.20;;;12.00;83.00;11.00;96143.00;;;;5039003;28;20649;-82
2023/12/10 10:19:35;;;;;;;3.10;1.40;;;12.10;82.80;11.10;96139.00;;;;5043718;28;20220;-82
2023/12/10 10:22:10;;;;;;;5.37;1.40;;;12.20;82.40;11.20;96145.00;;;;5042856;28;20627;-82
2023/12/10 10:24:38;;;;;;;2.43;1.60;;;12.30;82.00;11.20;96141.00;;;;5036002;28;20222;-82
2023/12/10 10:27:09;;;;;;;5.63;1.47;;;12.40;81.50;11.30;96149.00;;;;5036927;28;20288;-82
2023/12/10 10:29:37;;;;;;;5.20;1.87;;;12.50;81.00;11.40;96143.00;;;;5043432;28;20242;-82
2023/12/10 10:32:07;;;;;;;7.53;1.80;;;12.50;80.30;11.40;96145.00;;;;5039726;28;20269;-82
2023/12/10 10:34:36;;;;;;;3.67;1.67;;;12.60;79.90;11.40;96157.00;;;;5043577;28;20247;-82
2023/12/10 10:37:05;;;;;;;4.20;1.50;;;12.60;79.40;11.40;96141.00;;;;5044401;28;20299;-82
2023/12/10 10:39:32;;;;;;;2.63;1.27;;;12.60;79.00;11.40;96140.00;;;;5052810;28;20315;-82
2023/12/10 10:42:04;;;;;;;5.30;1.67;;;12.60;78.80;11.40;96138.00;;;;5045247;28;20211;-82
2023/12/10 10:44:33;;;;;;;4.27;1.40;;;12.60;78.70;11.40;96134.00;;;;5049233;28;20220;-82
2023/12/10 10:47:05;;;;;;;2.53;1.70;;;12.60;78.30;11.40;96133.00;;;;5053012;28;20211;-82
2023/12/10 10:49:35;;;;;;;4.17;1.40;;;12.60;78.20;11.40;96138.00;;;;5051201;28;20204;-82
2023/12/10 10:52:06;;;;;;;6.53;2.17;;;12.60;78.00;11.40;96126.00;;;;5053716;28;20197;-82
2023/12/10 10:54:36;;;;;;;2.90;1.37;;;12.70;78.20;11.40;96141.00;;;;5052931;28;20217;-82
2023/12/10 10:57:05;;;;;;;7.07;1.50;;;12.70;78.40;11.50;96134.00;;;;5049834;28;20679;-82
2023/12/10 10:59:35;;;;;;;3.27;1.40;;;12.70;78.70;11.50;96132.00;;;;5048433;28;20590;-82
2023/12/10 11:02:07;;;;;;;2.57;1.23;;;12.70;78.70;11.60;96135.00;;;;5044453;28;20197;-82
2023/12/10 11:04:36;;;;;;;4.20;1.40;;;12.80;79.00;11.60;96127.00;;;;5044670;28;20231;-82
2023/12/10 11:07:03;;;;;;;3.50;1.10;;;12.80;78.70;11.70;96123.00;;;;5042085;28;20205;-82
2023/12/10 11:09:31;;;;;;;4.37;1.33;;;12.80;78.20;11.70;96127.00;;;;5050117;28;20645;-82